createdAt,value
2017-10-27T00:00:04.746Z,12.60
2017-10-27T00:02:31.399Z,12.70
2017-10-27T00:04:57.930Z,12.60
2017-10-27T00:07:24.461Z,12.50
2017-10-27T00:09:51.007Z,12.50
2017-10-27T00:12:17.461Z,12.50
2017-10-27T00:14:43.933Z,12.50
2017-10-27T00:17:10.471Z,12.60
2017-10-27T00:19:37.440Z,12.70
2017-10-27T00:22:04.003Z,12.80
2017-10-27T00:24:31.160Z,12.90
2017-10-27T00:26:58.536Z,12.90
2017-10-27T00:29:25.126Z,12.90
2017-10-27T00:31:51.580Z,12.90
2017-10-27T00:34:18.936Z,12.90
2017-10-27T00:36:45.399Z,12.90
2017-10-27T00:39:12.614Z,12.80
2017-10-27T00:41:39.066Z,12.80
2017-10-27T00:44:05.487Z,12.70
2017-10-27T00:46:31.923Z,12.60
2017-10-27T00:48:58.427Z,12.60
2017-10-27T00:51:24.890Z,12.60
2017-10-27T00:53:51.404Z,12.50
2017-10-27T00:56:18.092Z,12.50
2017-10-27T00:58:44.520Z,12.50
2017-10-27T01:01:11.042Z,12.40
2017-10-27T01:03:37.467Z,12.40
2017-10-27T01:06:03.904Z,12.40
2017-10-27T01:08:30.482Z,12.40
2017-10-27T01:10:56.959Z,12.40
2017-10-27T01:13:24.198Z,12.40
2017-10-27T01:15:50.651Z,12.40
2017-10-27T01:18:17.108Z,12.40
2017-10-27T01:20:44.266Z,12.40
2017-10-27T01:23:10.769Z,12.40
2017-10-27T01:25:37.199Z,12.40
2017-10-27T01:28:03.647Z,12.40
2017-10-27T01:30:30.294Z,12.50
2017-10-27T01:32:56.844Z,12.50
2017-10-27T01:35:24.039Z,12.50
2017-10-27T01:37:50.471Z,12.40
2017-10-27T01:40:16.944Z,12.50
2017-10-27T01:42:43.379Z,12.50
2017-10-27T01:45:09.823Z,12.60
2017-10-27T01:47:36.429Z,12.50
2017-10-27T01:50:03.006Z,12.60
2017-10-27T01:52:29.490Z,12.60
2017-10-27T01:54:56.651Z,12.70
2017-10-27T01:57:23.812Z,12.70
2017-10-27T01:59:50.274Z,12.70
2017-10-27T02:02:16.724Z,12.70
2017-10-27T02:04:43.195Z,12.70
2017-10-27T02:07:09.628Z,12.70
2017-10-27T02:09:36.075Z,12.70
2017-10-27T02:12:02.548Z,12.70
2017-10-27T02:14:28.994Z,12.70
2017-10-27T02:16:55.439Z,12.70
2017-10-27T02:19:21.870Z,12.60
2017-10-27T02:21:48.368Z,12.50
2017-10-27T02:24:14.815Z,12.50
2017-10-27T02:26:42.046Z,12.50
2017-10-27T02:29:08.567Z,12.50
2017-10-27T02:31:35.004Z,12.50
2017-10-27T02:34:01.459Z,12.50
2017-10-27T02:36:27.914Z,12.60
2017-10-27T02:38:54.508Z,12.60
2017-10-27T02:41:21.016Z,12.60
2017-10-27T02:43:48.212Z,12.60
2017-10-27T02:46:15.503Z,12.60
2017-10-27T02:48:42.164Z,12.70
2017-10-27T02:51:08.697Z,12.60
2017-10-27T02:53:35.129Z,12.60
2017-10-27T02:56:01.597Z,12.60
2017-10-27T02:58:28.820Z,12.70
2017-10-27T03:00:55.264Z,12.60
2017-10-27T03:03:21.699Z,12.70
2017-10-27T03:05:48.169Z,12.70
2017-10-27T03:08:15.386Z,12.70
2017-10-27T03:10:41.800Z,12.60
2017-10-27T03:13:08.397Z,12.60
2017-10-27T03:15:35.612Z,12.60
2017-10-27T03:18:02.056Z,12.60
2017-10-27T03:20:28.533Z,12.70
2017-10-27T03:22:55.823Z,12.70
2017-10-27T03:25:22.467Z,12.70
2017-10-27T03:27:48.989Z,12.70
2017-10-27T03:30:16.175Z,12.80
2017-10-27T03:32:42.691Z,12.70
2017-10-27T03:35:09.874Z,12.80
2017-10-27T03:37:36.332Z,12.80
2017-10-27T03:40:02.755Z,12.80
2017-10-27T03:42:29.262Z,12.80
2017-10-27T03:44:56.425Z,12.80
2017-10-27T03:47:22.844Z,12.80
2017-10-27T03:49:50.241Z,12.70
2017-10-27T03:52:16.715Z,12.70
2017-10-27T03:54:43.196Z,12.70
2017-10-27T03:57:16.716Z,12.60
2017-10-27T03:59:43.172Z,12.60
2017-10-27T04:02:09.620Z,12.60
2017-10-27T04:04:36.063Z,12.50
2017-10-27T04:07:02.525Z,12.40
2017-10-27T04:09:29.008Z,12.40
2017-10-27T04:11:55.467Z,12.40
2017-10-27T04:14:21.947Z,12.30
2017-10-27T04:16:49.134Z,12.30
2017-10-27T04:19:15.568Z,12.30
2017-10-27T04:21:42.084Z,12.30
2017-10-27T04:24:08.518Z,12.20
2017-10-27T04:26:34.951Z,12.20
2017-10-27T04:29:01.438Z,12.10
2017-10-27T04:31:27.881Z,12.10
2017-10-27T04:33:54.368Z,12.00
2017-10-27T04:36:27.909Z,12.00
2017-10-27T04:38:54.383Z,12.00
2017-10-27T04:41:20.939Z,12.00
2017-10-27T04:43:47.384Z,11.90
2017-10-27T04:46:13.883Z,11.90
2017-10-27T04:48:40.332Z,11.90
2017-10-27T04:51:06.799Z,11.90
2017-10-27T04:53:33.257Z,12.00
2017-10-27T04:56:00.441Z,12.00
2017-10-27T04:58:26.924Z,12.00
2017-10-27T05:00:53.416Z,12.00
2017-10-27T05:03:19.859Z,12.00
2017-10-27T05:05:46.283Z,12.00
2017-10-27T05:08:13.507Z,11.80
2017-10-27T05:10:39.951Z,11.90
2017-10-27T05:13:06.428Z,11.80
2017-10-27T05:15:32.945Z,11.80
2017-10-27T05:18:06.260Z,11.70
2017-10-27T05:20:38.971Z,11.70
2017-10-27T05:23:11.411Z,11.60
2017-10-27T05:25:37.883Z,11.60
2017-10-27T05:28:04.344Z,11.60
2017-10-27T05:30:30.815Z,11.60
2017-10-27T05:32:58.024Z,11.60
2017-10-27T05:35:24.477Z,11.70
2017-10-27T05:37:50.912Z,11.70
2017-10-27T05:40:17.360Z,11.70
2017-10-27T05:42:43.833Z,11.70
2017-10-27T05:45:11.120Z,11.70
2017-10-27T05:47:37.587Z,11.70
2017-10-27T05:50:04.013Z,11.60
2017-10-27T05:52:30.504Z,11.60
2017-10-27T05:54:57.703Z,11.60
2017-10-27T05:57:24.143Z,11.60
2017-10-27T05:59:50.634Z,11.60
2017-10-27T06:02:17.824Z,11.70
2017-10-27T06:04:44.272Z,11.70
2017-10-27T06:07:10.708Z,11.70
2017-10-27T06:09:37.221Z,11.70
2017-10-27T06:12:04.435Z,11.70
2017-10-27T06:14:30.881Z,11.70
2017-10-27T06:16:57.355Z,11.70
2017-10-27T06:19:23.816Z,11.70
2017-10-27T06:21:50.443Z,11.70
2017-10-27T06:24:16.965Z,11.80
2017-10-27T06:26:44.212Z,11.90
2017-10-27T06:29:10.672Z,11.80
2017-10-27T06:31:37.830Z,11.70
2017-10-27T06:34:04.290Z,11.60
2017-10-27T06:36:30.786Z,11.60
2017-10-27T06:38:57.253Z,11.50
2017-10-27T06:41:23.684Z,11.50
2017-10-27T06:43:50.932Z,11.40
2017-10-27T06:46:18.122Z,11.40
2017-10-27T06:48:44.830Z,11.40
2017-10-27T06:51:11.284Z,11.30
2017-10-27T06:53:38.533Z,11.30
2017-10-27T06:56:05.732Z,11.20
2017-10-27T06:58:32.194Z,11.20
2017-10-27T07:00:58.854Z,11.10
2017-10-27T07:03:25.405Z,10.90
2017-10-27T07:05:52.633Z,10.60
2017-10-27T07:08:19.140Z,10.60
2017-10-27T07:10:45.587Z,10.40
2017-10-27T07:13:12.071Z,10.30
2017-10-27T07:15:38.696Z,10.20
2017-10-27T07:18:05.204Z,10.00
2017-10-27T07:20:31.639Z,9.90
2017-10-27T07:22:58.311Z,9.90
2017-10-27T07:25:24.830Z,9.80
2017-10-27T07:27:51.316Z,9.80
2017-10-27T07:30:17.887Z,9.80
2017-10-27T07:32:44.300Z,9.90
2017-10-27T07:35:11.536Z,9.80
2017-10-27T07:37:37.953Z,9.80
2017-10-27T07:40:04.467Z,9.80
2017-10-27T07:42:30.931Z,9.80
2017-10-27T07:44:57.423Z,9.80
2017-10-27T07:47:24.628Z,9.80
2017-10-27T07:49:51.100Z,9.70
2017-10-27T07:52:17.551Z,9.80
2017-10-27T07:54:44.727Z,9.70
2017-10-27T07:57:11.154Z,9.70
2017-10-27T07:59:38.542Z,9.70
2017-10-27T08:02:04.986Z,9.70
2017-10-27T08:04:31.513Z,9.70
2017-10-27T08:06:57.995Z,9.70
2017-10-27T08:09:25.812Z,9.60
2017-10-27T08:11:53.033Z,9.60
2017-10-27T08:14:19.521Z,9.60
2017-10-27T08:16:45.944Z,9.70
2017-10-27T08:19:13.244Z,9.70
2017-10-27T08:21:39.742Z,9.60
2017-10-27T08:24:06.230Z,9.60
2017-10-27T08:26:32.801Z,9.50
2017-10-27T08:28:59.355Z,9.50
2017-10-27T08:31:26.692Z,9.30
2017-10-27T08:33:53.179Z,9.30
2017-10-27T08:36:19.600Z,9.30
2017-10-27T08:39:01.707Z,9.20
2017-10-27T08:44:09.612Z,9.20
2017-10-27T08:46:36.868Z,9.20
2017-10-27T08:49:03.359Z,9.20
2017-10-27T08:51:29.857Z,9.20
2017-10-27T08:53:56.364Z,9.10
2017-10-27T08:56:22.859Z,9.20
2017-10-27T08:58:49.330Z,9.10
2017-10-27T09:01:15.801Z,9.30
2017-10-27T09:03:43.009Z,9.30
2017-10-27T09:06:09.472Z,9.30
2017-10-27T09:08:35.944Z,9.30
2017-10-27T09:11:03.246Z,9.30
2017-10-27T09:13:29.716Z,9.30
2017-10-27T09:15:56.313Z,9.40
2017-10-27T09:18:22.782Z,9.40
2017-10-27T09:20:49.232Z,9.50
2017-10-27T09:23:15.679Z,9.50
2017-10-27T09:25:42.182Z,9.60
2017-10-27T09:28:08.616Z,9.60
2017-10-27T09:30:35.064Z,9.60
2017-10-27T09:33:01.572Z,9.70
2017-10-27T09:35:27.996Z,9.80
2017-10-27T09:37:55.209Z,10.10
2017-10-27T09:40:21.642Z,10.10
2017-10-27T09:42:48.103Z,10.30
2017-10-27T09:45:14.545Z,10.40
2017-10-27T09:47:41.044Z,10.60
2017-10-27T09:50:07.473Z,10.70
2017-10-27T09:52:33.915Z,10.90
2017-10-27T09:55:00.408Z,10.90
2017-10-27T09:57:27.591Z,11.10
2017-10-27T09:59:54.070Z,11.00
2017-10-27T10:02:20.505Z,11.20
2017-10-27T10:04:46.994Z,11.30
2017-10-27T10:07:15.711Z,11.10
2017-10-27T10:09:42.176Z,11.00
2017-10-27T10:12:08.721Z,10.90
2017-10-27T10:14:35.184Z,10.90
2017-10-27T10:17:01.670Z,11.00
2017-10-27T10:19:28.140Z,11.60
2017-10-27T10:21:54.674Z,12.20
2017-10-27T10:24:21.389Z,12.50
2017-10-27T10:26:47.857Z,12.80
2017-10-27T10:29:14.386Z,12.80
2017-10-27T10:31:40.929Z,12.40
2017-10-27T10:34:07.430Z,12.10
2017-10-27T10:36:34.607Z,11.90
2017-10-27T10:39:01.072Z,11.80
2017-10-27T10:41:27.544Z,11.80
2017-10-27T10:43:54.796Z,11.80
2017-10-27T10:46:21.240Z,11.80
2017-10-27T10:48:47.693Z,11.70
2017-10-27T10:51:14.921Z,12.50
2017-10-27T10:53:41.373Z,12.50
2017-10-27T10:56:07.932Z,13.30
2017-10-27T10:58:35.280Z,14.40
2017-10-27T11:01:02.591Z,14.40
2017-10-27T11:03:29.053Z,14.30
2017-10-27T11:05:55.546Z,13.90
2017-10-27T11:08:21.972Z,13.70
2017-10-27T11:10:49.167Z,12.60
2017-10-27T11:13:15.676Z,12.60
2017-10-27T11:15:42.177Z,12.50
2017-10-27T11:18:08.617Z,12.40
2017-10-27T11:20:35.081Z,12.80
2017-10-27T11:23:04.060Z,12.30
2017-10-27T11:25:45.365Z,12.30
2017-10-27T11:31:07.549Z,12.10
2017-10-27T11:33:34.014Z,12.20
2017-10-27T11:36:00.481Z,12.20
2017-10-27T11:38:27.709Z,12.00
2017-10-27T11:40:54.363Z,12.00
2017-10-27T11:43:20.840Z,11.80
2017-10-27T11:45:47.355Z,11.60
2017-10-27T11:48:14.594Z,12.90
2017-10-27T11:50:41.090Z,12.90
2017-10-27T11:53:07.548Z,13.30
2017-10-27T11:55:34.025Z,13.70
2017-10-27T11:58:01.266Z,13.90
2017-10-27T12:00:27.718Z,13.80
2017-10-27T12:02:55.090Z,13.20
2017-10-27T12:05:22.303Z,13.00
2017-10-27T12:07:48.817Z,13.00
2017-10-27T12:10:15.339Z,13.00
2017-10-27T12:12:42.573Z,12.90
2017-10-27T12:15:09.811Z,13.00
2017-10-27T12:17:36.309Z,13.00
2017-10-27T12:20:02.820Z,13.10
2017-10-27T12:22:30.015Z,13.80
2017-10-27T12:24:56.539Z,13.80
2017-10-27T12:27:23.091Z,14.00
2017-10-27T12:29:49.597Z,13.30
2017-10-27T12:32:16.796Z,13.40
2017-10-27T12:34:43.252Z,13.40
2017-10-27T12:37:09.696Z,13.30
2017-10-27T12:39:36.155Z,13.40
2017-10-27T12:42:03.368Z,13.60
2017-10-27T12:44:29.882Z,13.50
2017-10-27T12:46:56.363Z,14.00
2017-10-27T12:49:22.865Z,13.80
2017-10-27T12:51:49.348Z,13.50
2017-10-27T12:54:15.854Z,13.10
2017-10-27T12:56:42.353Z,12.30
2017-10-27T12:59:08.847Z,11.50
2017-10-27T13:01:35.333Z,11.30
2017-10-27T13:04:02.563Z,11.80
2017-10-27T13:06:29.063Z,11.80
2017-10-27T13:08:55.531Z,12.80
2017-10-27T13:11:22.074Z,14.00
2017-10-27T13:13:48.538Z,14.20
2017-10-27T13:16:14.983Z,13.60
2017-10-27T13:18:41.484Z,13.40
2017-10-27T13:21:07.930Z,13.40
2017-10-27T13:23:34.445Z,13.10
2017-10-27T13:26:00.969Z,13.20
2017-10-27T13:28:27.525Z,13.40
2017-10-27T13:30:53.960Z,13.90
2017-10-27T13:33:20.645Z,15.70
2017-10-27T13:35:47.246Z,16.00
2017-10-27T13:38:13.696Z,15.70
2017-10-27T13:40:40.176Z,14.80
2017-10-27T13:43:06.641Z,13.80
2017-10-27T13:45:33.861Z,13.00
2017-10-27T13:48:00.321Z,13.00
2017-10-27T13:50:26.843Z,13.80
2017-10-27T13:52:53.294Z,13.30
2017-10-27T13:55:19.850Z,12.80
2017-10-27T13:57:47.086Z,12.40
2017-10-27T14:00:13.550Z,12.30
2017-10-27T14:02:40.763Z,12.20
2017-10-27T14:05:07.195Z,12.10
2017-10-27T14:07:33.715Z,12.10
2017-10-27T14:10:00.251Z,12.00
2017-10-27T14:12:26.711Z,11.90
2017-10-27T14:14:53.213Z,12.00
2017-10-27T14:17:20.557Z,14.90
2017-10-27T14:19:47.759Z,16.10
2017-10-27T14:22:14.240Z,16.10
2017-10-27T14:24:40.823Z,17.70
2017-10-27T14:27:07.275Z,18.30
2017-10-27T14:29:33.771Z,18.80
2017-10-27T14:32:00.322Z,18.70
2017-10-27T14:34:27.568Z,17.10
2017-10-27T14:36:54.846Z,15.40
2017-10-27T14:39:22.049Z,14.00
2017-10-27T14:41:48.560Z,13.90
2017-10-27T14:44:15.140Z,13.30
2017-10-27T14:46:41.642Z,12.80
2017-10-27T14:49:08.116Z,12.30
2017-10-27T14:51:34.848Z,12.20
2017-10-27T14:54:01.347Z,12.00
2017-10-27T14:56:28.565Z,11.70
2017-10-27T14:58:55.062Z,11.70
2017-10-27T15:01:21.545Z,11.60
2017-10-27T15:03:48.071Z,11.50
2017-10-27T15:06:14.532Z,11.50
2017-10-27T15:08:48.345Z,11.50
2017-10-27T15:11:14.825Z,11.60
2017-10-27T15:13:41.347Z,11.50
2017-10-27T15:16:08.622Z,11.40
2017-10-27T15:18:35.118Z,11.40
2017-10-27T15:21:01.631Z,11.40
2017-10-27T15:23:28.089Z,11.40
2017-10-27T15:25:54.675Z,11.30
2017-10-27T15:28:22.024Z,11.20
2017-10-27T15:30:49.274Z,11.10
2017-10-27T15:33:16.466Z,11.10
2017-10-27T15:35:42.931Z,11.10
2017-10-27T15:38:09.461Z,11.10
2017-10-27T15:40:35.915Z,11.10
2017-10-27T15:43:02.432Z,11.10
2017-10-27T15:45:28.908Z,11.00
2017-10-27T15:47:55.559Z,10.90
2017-10-27T15:50:22.769Z,10.80
2017-10-27T15:52:49.211Z,10.80
2017-10-27T15:55:15.692Z,10.70
2017-10-27T15:57:43.655Z,10.60
2017-10-27T16:00:10.168Z,10.60
2017-10-27T16:02:36.635Z,10.50
2017-10-27T16:05:03.857Z,10.40
2017-10-27T16:07:30.308Z,10.40
2017-10-27T16:09:56.931Z,10.30
2017-10-27T16:12:23.415Z,10.20
2017-10-27T16:14:49.887Z,10.20
2017-10-27T16:17:17.159Z,10.10
2017-10-27T16:19:43.626Z,10.10
2017-10-27T16:22:10.078Z,10.10
2017-10-27T16:24:36.555Z,10.10
2017-10-27T16:27:03.792Z,10.00
2017-10-27T16:29:30.298Z,10.00
2017-10-27T16:31:56.812Z,10.00
2017-10-27T16:34:23.293Z,10.00
2017-10-27T16:37:04.594Z,10.00
2017-10-27T16:39:31.291Z,10.00
2017-10-27T16:41:57.763Z,9.90
2017-10-27T16:44:24.229Z,9.90
2017-10-27T16:46:51.479Z,9.90
2017-10-27T16:49:17.967Z,9.90
2017-10-27T16:51:44.509Z,9.90
2017-10-27T16:54:10.956Z,9.90
2017-10-27T16:56:37.503Z,9.90
2017-10-27T16:59:03.977Z,9.90
2017-10-27T17:01:31.305Z,9.80
2017-10-27T17:03:57.816Z,9.80
2017-10-27T17:06:24.382Z,9.80
2017-10-27T17:08:50.844Z,9.80
2017-10-27T17:11:17.352Z,9.80
2017-10-27T17:13:43.924Z,9.80
2017-10-27T17:16:10.698Z,9.80
2017-10-27T17:18:38.025Z,9.70
2017-10-27T17:21:04.593Z,9.70
2017-10-27T17:23:31.913Z,9.70
2017-10-27T17:25:58.494Z,9.60
2017-10-27T17:28:25.764Z,9.60
2017-10-27T17:30:53.045Z,9.60
2017-10-27T17:33:19.628Z,9.60
2017-10-27T17:35:46.099Z,9.70
2017-10-27T17:38:12.608Z,9.60
2017-10-27T17:40:39.179Z,9.80
2017-10-27T17:43:07.596Z,9.90
2017-10-27T17:45:34.430Z,9.90
2017-10-27T17:48:00.945Z,9.90
2017-10-27T17:50:28.169Z,9.90
2017-10-27T17:52:54.651Z,9.80
2017-10-27T17:55:21.183Z,9.80
2017-10-27T17:57:48.422Z,9.70
2017-10-27T18:00:14.917Z,9.70
2017-10-27T18:02:41.486Z,9.70
2017-10-27T18:05:08.007Z,9.70
2017-10-27T18:07:34.568Z,9.70
2017-10-27T18:10:01.058Z,9.70
2017-10-27T18:12:29.094Z,9.70
2017-10-27T18:14:55.621Z,9.70
2017-10-27T18:17:22.111Z,9.70
2017-10-27T18:19:48.562Z,9.70
2017-10-27T18:22:15.274Z,9.70
2017-10-27T18:24:42.726Z,9.70
2017-10-27T18:27:10.907Z,9.70
2017-10-27T18:29:37.530Z,9.70
2017-10-27T18:32:04.090Z,9.70
2017-10-27T18:34:30.724Z,9.70
2017-10-27T18:36:57.878Z,9.70
2017-10-27T18:39:24.367Z,9.70
2017-10-27T18:41:51.002Z,9.70
2017-10-27T18:44:17.517Z,9.70
2017-10-27T18:46:44.850Z,9.60
2017-10-27T18:49:11.389Z,9.60
2017-10-27T18:51:38.679Z,9.60
2017-10-27T18:54:05.876Z,9.70
2017-10-27T18:56:32.371Z,9.60
2017-10-27T18:58:59.701Z,9.60
2017-10-27T19:01:26.189Z,9.60
2017-10-27T19:03:53.489Z,9.50
2017-10-27T19:06:19.965Z,9.50
2017-10-27T19:08:47.245Z,9.50
2017-10-27T19:11:20.675Z,9.50
2017-10-27T19:13:47.188Z,9.50
2017-10-27T19:16:13.654Z,9.50
2017-10-27T19:18:40.191Z,9.50
2017-10-27T19:21:13.635Z,9.50
2017-10-27T19:23:40.980Z,9.50
2017-10-27T19:26:07.801Z,9.50
2017-10-27T19:28:34.395Z,9.40
2017-10-27T19:31:01.750Z,9.40
2017-10-27T19:33:29.005Z,9.40
2017-10-27T19:36:11.177Z,9.40
2017-10-27T19:38:37.687Z,9.40
2017-10-27T19:41:04.206Z,9.30
2017-10-27T19:43:31.119Z,9.30
2017-10-27T19:45:57.756Z,9.20
2017-10-27T19:48:24.279Z,9.10
2017-10-27T19:50:50.778Z,9.10
2017-10-27T19:53:17.346Z,9.10
2017-10-27T19:55:43.965Z,9.00
2017-10-27T19:58:11.169Z,9.10
2017-10-27T20:00:37.703Z,9.00
2017-10-27T20:03:04.229Z,9.00
2017-10-27T20:05:30.762Z,9.00
2017-10-27T20:07:58.157Z,9.10
2017-10-27T20:10:24.632Z,9.10
2017-10-27T20:12:51.856Z,9.10
2017-10-27T20:15:18.508Z,9.10
2017-10-27T20:17:45.036Z,9.20
2017-10-27T20:20:11.773Z,9.10
2017-10-27T20:22:38.638Z,9.10
2017-10-27T20:25:05.148Z,9.10
2017-10-27T20:27:31.642Z,9.10
2017-10-27T20:29:59.134Z,9.10
2017-10-27T20:32:25.628Z,9.10
2017-10-27T20:34:52.123Z,9.00
2017-10-27T20:37:18.608Z,9.00
2017-10-27T20:39:45.253Z,8.90
2017-10-27T20:42:11.717Z,8.80
2017-10-27T20:44:38.251Z,8.80
2017-10-27T20:47:05.659Z,8.70
2017-10-27T20:49:32.228Z,8.70
2017-10-27T20:51:58.907Z,8.70
2017-10-27T20:54:25.433Z,8.70
2017-10-27T20:56:52.681Z,8.60
2017-10-27T20:59:19.979Z,8.60
2017-10-27T21:01:46.470Z,8.60
2017-10-27T21:04:13.759Z,8.60
2017-10-27T21:06:40.236Z,8.60
2017-10-27T21:09:06.924Z,8.60
2017-10-27T21:11:34.144Z,8.60
2017-10-27T21:14:00.636Z,8.60
2017-10-27T21:16:27.195Z,8.60
2017-10-27T21:18:53.664Z,8.50
2017-10-27T21:21:20.185Z,8.50
2017-10-27T21:23:46.983Z,8.40
2017-10-27T21:26:14.298Z,8.30
2017-10-27T21:28:55.676Z,8.20
2017-10-27T21:31:22.215Z,8.20
2017-10-27T21:33:48.708Z,8.10
2017-10-27T21:36:15.867Z,7.90
2017-10-27T21:38:43.148Z,7.90
2017-10-27T21:41:09.649Z,7.90
2017-10-27T21:43:36.139Z,7.90
2017-10-27T21:46:02.886Z,7.80
2017-10-27T21:48:29.397Z,7.80
2017-10-27T21:50:56.614Z,7.60
2017-10-27T21:53:23.246Z,7.60
2017-10-27T21:55:49.745Z,7.60
2017-10-27T21:58:16.211Z,7.50
2017-10-27T22:00:42.679Z,7.40
2017-10-27T22:03:09.189Z,7.30
2017-10-27T22:05:35.670Z,7.20
2017-10-27T22:08:04.528Z,7.10
2017-10-27T22:10:31.003Z,7.10
2017-10-27T22:12:58.211Z,7.10
2017-10-27T22:15:24.861Z,7.10
2017-10-27T22:17:51.457Z,7.10
2017-10-27T22:20:18.749Z,7.00
2017-10-27T22:22:45.325Z,7.00
2017-10-27T22:25:11.867Z,7.00
2017-10-27T22:27:38.320Z,7.10
2017-10-27T22:30:04.908Z,7.00
2017-10-27T22:32:31.358Z,7.00
2017-10-27T22:34:57.905Z,7.00
2017-10-27T22:37:24.418Z,6.90
2017-10-27T22:39:50.968Z,7.00
2017-10-27T22:42:17.519Z,7.00
2017-10-27T22:44:43.961Z,7.10
2017-10-27T22:47:10.476Z,7.10
2017-10-27T22:49:36.935Z,7.00
2017-10-27T22:52:03.437Z,7.00
2017-10-27T22:54:30.660Z,6.90
2017-10-27T22:56:57.153Z,6.90
2017-10-27T22:59:23.621Z,6.80
2017-10-27T23:01:50.121Z,6.70
2017-10-27T23:04:17.321Z,6.70
2017-10-27T23:06:43.820Z,6.60
2017-10-27T23:09:10.291Z,6.60
2017-10-27T23:11:36.887Z,6.60
2017-10-27T23:14:05.187Z,6.60
2017-10-27T23:16:31.661Z,6.50
2017-10-27T23:18:58.160Z,6.60
2017-10-27T23:21:24.689Z,6.60
2017-10-27T23:23:51.896Z,6.60
2017-10-27T23:26:18.402Z,6.60
2017-10-27T23:28:44.879Z,6.70
2017-10-27T23:31:11.351Z,6.70
2017-10-27T23:33:37.851Z,6.80
2017-10-27T23:36:04.352Z,6.90
2017-10-27T23:38:30.867Z,6.90
2017-10-27T23:40:57.335Z,6.90
2017-10-27T23:43:23.832Z,7.00
2017-10-27T23:45:50.310Z,7.00
2017-10-27T23:48:17.525Z,6.90
2017-10-27T23:50:44.003Z,6.90
2017-10-27T23:53:11.203Z,6.90
2017-10-27T23:55:37.707Z,6.80
2017-10-27T23:58:04.173Z,6.80
